createdAt,value
2018-06-22T00:02:25.604Z,2.07
2018-06-22T00:04:54.575Z,2.07
2018-06-22T00:07:23.658Z,1.77
2018-06-22T00:09:52.574Z,1.90
2018-06-22T00:12:21.478Z,2.20
2018-06-22T00:14:50.382Z,2.10
2018-06-22T00:17:19.501Z,1.97
2018-06-22T00:19:48.405Z,1.97
2018-06-22T00:22:17.365Z,1.90
2018-06-22T00:24:46.471Z,1.80
2018-06-22T00:27:15.379Z,2.17
2018-06-22T00:29:44.419Z,2.00
2018-06-22T00:32:13.345Z,1.90
2018-06-22T00:34:42.321Z,1.90
2018-06-22T00:37:11.249Z,1.80
2018-06-22T00:39:40.267Z,1.83
2018-06-22T00:42:09.249Z,1.93
2018-06-22T00:44:38.290Z,1.97
2018-06-22T00:47:07.185Z,2.07
2018-06-22T00:49:36.429Z,2.47
2018-06-22T00:52:05.361Z,1.60
2018-06-22T00:54:34.467Z,1.97
2018-06-22T00:57:03.402Z,1.97
2018-06-22T00:59:32.389Z,1.73
2018-06-22T01:02:01.284Z,2.13
2018-06-22T01:04:30.223Z,1.73
2018-06-22T01:06:59.111Z,1.90
2018-06-22T01:09:28.046Z,1.83
2018-06-22T01:11:56.909Z,2.07
2018-06-22T01:14:25.813Z,1.90
2018-06-22T01:16:54.850Z,2.63
2018-06-22T01:19:23.797Z,2.10
2018-06-22T01:21:52.735Z,2.20
2018-06-22T01:24:21.677Z,2.10
2018-06-22T01:26:50.613Z,2.40
2018-06-22T01:29:19.565Z,1.97
2018-06-22T01:31:48.497Z,1.97
2018-06-22T01:34:17.542Z,2.03
2018-06-22T01:36:46.179Z,2.23
2018-06-22T01:39:14.982Z,1.57
2018-06-22T01:41:43.861Z,1.90
2018-06-22T01:44:12.894Z,1.77
2018-06-22T01:46:41.986Z,2.10
2018-06-22T01:49:10.929Z,2.93
2018-06-22T01:51:39.897Z,2.00
2018-06-22T01:54:08.866Z,1.93
2018-06-22T01:56:37.851Z,1.77
2018-06-22T01:59:06.760Z,1.90
2018-06-22T02:01:35.872Z,2.50
2018-06-22T02:04:04.830Z,2.00
2018-06-22T02:06:33.937Z,2.20
2018-06-22T02:09:05.061Z,1.57
2018-06-22T02:11:34.001Z,1.93
2018-06-22T02:14:03.363Z,2.10
2018-06-22T02:16:32.354Z,1.87
2018-06-22T02:19:01.341Z,2.00
2018-06-22T02:21:30.513Z,1.93
2018-06-22T02:23:59.427Z,1.93
2018-06-22T02:26:28.406Z,2.33
2018-06-22T02:28:57.289Z,1.90
2018-06-22T02:31:26.341Z,1.87
2018-06-22T02:33:55.287Z,2.20
2018-06-22T02:36:24.200Z,2.03
2018-06-22T02:38:53.130Z,1.83
2018-06-22T02:41:22.048Z,2.27
2018-06-22T02:43:50.983Z,1.77
2018-06-22T02:46:20.103Z,1.50
2018-06-22T02:48:49.094Z,1.70
2018-06-22T02:51:18.035Z,2.40
2018-06-22T02:53:47.036Z,2.50
2018-06-22T02:56:15.987Z,2.10
2018-06-22T02:58:45.789Z,2.20
2018-06-22T03:01:14.776Z,2.43
2018-06-22T03:03:43.751Z,2.27
2018-06-22T03:06:12.663Z,2.33
2018-06-22T03:11:17.075Z,2.10
2018-06-22T03:13:46.210Z,2.57
2018-06-22T03:16:15.137Z,2.30
2018-06-22T03:18:44.226Z,2.03
2018-06-22T03:21:13.294Z,2.00
2018-06-22T03:23:41.964Z,1.87
2018-06-22T03:26:10.859Z,1.87
2018-06-22T03:28:39.814Z,2.07
2018-06-22T03:31:08.733Z,2.00
2018-06-22T03:33:37.844Z,1.80
2018-06-22T03:36:06.763Z,2.20
2018-06-22T03:41:11.380Z,2.23
2018-06-22T03:43:40.310Z,2.37
2018-06-22T03:46:09.454Z,2.30
2018-06-22T03:48:38.384Z,2.20
2018-06-22T03:51:07.327Z,2.40
2018-06-22T03:53:36.258Z,2.43
2018-06-22T03:56:05.215Z,2.10
2018-06-22T03:58:34.179Z,2.07
2018-06-22T04:01:03.098Z,1.97
2018-06-22T04:03:32.018Z,3.43
2018-06-22T04:06:00.924Z,2.30
2018-06-22T04:08:29.872Z,1.67
2018-06-22T04:10:58.810Z,1.97
2018-06-22T04:13:27.965Z,1.87
2018-06-22T04:15:57.143Z,2.10
2018-06-22T04:18:26.590Z,1.80
2018-06-22T04:20:55.525Z,1.70
2018-06-22T04:23:24.449Z,2.23
2018-06-22T04:25:53.374Z,2.33
2018-06-22T04:28:22.302Z,2.77
2018-06-22T04:30:51.223Z,2.20
2018-06-22T04:33:20.190Z,2.30
2018-06-22T04:35:49.277Z,2.30
2018-06-22T04:38:18.394Z,2.30
2018-06-22T04:40:47.489Z,2.33
2018-06-22T04:43:16.167Z,1.80
2018-06-22T04:45:44.884Z,2.00
2018-06-22T04:48:13.840Z,2.00
2018-06-22T04:50:42.770Z,1.87
2018-06-22T04:53:11.692Z,1.97
2018-06-22T04:55:40.775Z,2.00
2018-06-22T04:58:10.126Z,2.10
2018-06-22T05:00:39.122Z,1.77
2018-06-22T05:03:07.783Z,2.27
2018-06-22T05:05:36.517Z,2.33
2018-06-22T05:08:05.714Z,2.17
2018-06-22T05:10:34.659Z,2.30
2018-06-22T05:13:03.965Z,2.93
2018-06-22T05:15:32.869Z,3.17
2018-06-22T05:18:01.834Z,2.00
2018-06-22T05:20:31.050Z,1.90
2018-06-22T05:22:59.717Z,2.10
2018-06-22T05:25:28.406Z,1.73
2018-06-22T05:27:57.398Z,2.17
2018-06-22T05:30:26.469Z,2.73
2018-06-22T05:32:55.652Z,3.63
2018-06-22T05:35:24.770Z,3.47
2018-06-22T05:37:54.113Z,2.90
2018-06-22T05:40:23.131Z,3.13
2018-06-22T05:42:53.095Z,3.37
2018-06-22T05:45:22.001Z,3.93
2018-06-22T05:47:50.933Z,3.20
2018-06-22T05:50:19.906Z,3.20
2018-06-22T05:52:48.866Z,2.40
2018-06-22T05:55:17.929Z,2.90
2018-06-22T05:57:46.822Z,1.67
2018-06-22T06:00:15.738Z,3.10
2018-06-22T06:02:44.898Z,2.00
2018-06-22T06:05:13.862Z,2.40
2018-06-22T06:07:42.797Z,2.00
2018-06-22T06:10:11.727Z,2.60
2018-06-22T06:12:40.887Z,2.70
2018-06-22T06:15:09.826Z,2.33
2018-06-22T06:17:38.768Z,2.47
2018-06-22T06:20:07.704Z,2.30
2018-06-22T06:22:36.643Z,2.00
2018-06-22T06:25:05.586Z,1.97
2018-06-22T06:27:34.539Z,2.13
2018-06-22T06:30:03.701Z,2.70
2018-06-22T06:32:32.370Z,2.30
2018-06-22T06:35:01.352Z,2.40
2018-06-22T06:37:30.298Z,2.53
2018-06-22T06:39:59.235Z,2.60
2018-06-22T06:42:28.170Z,2.27
2018-06-22T06:44:57.363Z,2.90
2018-06-22T06:47:26.614Z,2.87
2018-06-22T06:49:55.825Z,2.13
2018-06-22T06:52:24.838Z,2.30
2018-06-22T06:54:53.751Z,1.97
2018-06-22T06:57:22.850Z,3.03
2018-06-22T06:59:51.779Z,2.40
2018-06-22T07:02:20.951Z,2.20
2018-06-22T07:04:49.860Z,2.53
2018-06-22T07:07:18.821Z,2.40
2018-06-22T07:09:47.599Z,1.80
2018-06-22T07:12:16.396Z,2.07
2018-06-22T07:14:45.383Z,2.63
2018-06-22T07:17:14.328Z,2.17
2018-06-22T07:19:43.455Z,2.50
2018-06-22T07:22:12.551Z,2.60
2018-06-22T07:24:41.463Z,2.43
2018-06-22T07:27:10.399Z,2.83
2018-06-22T07:29:39.520Z,2.83
2018-06-22T07:32:08.567Z,2.93
2018-06-22T07:34:37.610Z,2.60
2018-06-22T07:37:06.543Z,2.63
2018-06-22T07:39:35.530Z,2.83
2018-06-22T07:42:04.525Z,2.93
2018-06-22T07:44:33.461Z,2.77
2018-06-22T07:47:02.464Z,3.07
2018-06-22T07:49:31.565Z,3.30
2018-06-22T07:52:00.292Z,3.43
2018-06-22T07:54:29.045Z,3.20
2018-06-22T07:56:57.949Z,2.30
2018-06-22T07:59:26.982Z,3.70
2018-06-22T08:01:55.906Z,2.93
2018-06-22T08:04:25.007Z,2.93
2018-06-22T08:06:53.991Z,3.13
2018-06-22T08:09:23.049Z,2.40
2018-06-22T08:11:52.018Z,3.27
2018-06-22T08:14:21.204Z,3.40
2018-06-22T08:16:49.906Z,2.73
2018-06-22T08:19:18.727Z,2.97
2018-06-22T08:21:47.675Z,3.00
2018-06-22T08:24:16.725Z,2.73
2018-06-22T08:26:45.705Z,3.23
2018-06-22T08:29:14.676Z,2.83
2018-06-22T08:31:43.610Z,2.83
2018-06-22T08:34:12.699Z,3.37
2018-06-22T08:36:41.653Z,3.20
2018-06-22T08:39:10.579Z,3.23
2018-06-22T08:41:39.566Z,2.93
2018-06-22T08:44:08.501Z,2.93
2018-06-22T08:46:37.451Z,3.57
2018-06-22T08:49:06.532Z,3.00
2018-06-22T08:51:35.438Z,2.97
2018-06-22T08:54:04.704Z,2.43
2018-06-22T08:56:33.357Z,4.27
2018-06-22T08:59:01.786Z,3.47
2018-06-22T09:01:30.515Z,3.73
2018-06-22T09:03:59.450Z,3.37
2018-06-22T09:06:28.471Z,2.97
2018-06-22T09:08:57.398Z,3.70
2018-06-22T09:11:26.363Z,3.70
2018-06-22T09:13:55.337Z,3.23
2018-06-22T09:16:31.119Z,4.10
2018-06-22T09:19:00.076Z,3.50
2018-06-22T09:21:29.007Z,2.70
2018-06-22T09:23:58.145Z,2.83
2018-06-22T09:26:27.170Z,3.70
2018-06-22T09:28:55.849Z,2.97
2018-06-22T09:31:24.763Z,3.20
2018-06-22T09:33:53.648Z,3.23
2018-06-22T09:36:22.578Z,3.57
2018-06-22T09:38:51.620Z,3.10
2018-06-22T09:41:20.582Z,2.70
2018-06-22T09:43:49.525Z,3.10
2018-06-22T09:46:18.482Z,2.90
2018-06-22T09:48:47.237Z,3.20
2018-06-22T09:51:16.148Z,3.10
2018-06-22T09:53:45.070Z,2.83
2018-06-22T09:56:14.018Z,2.87
2018-06-22T09:58:42.964Z,3.20
2018-06-22T10:01:12.022Z,3.17
2018-06-22T10:03:40.967Z,3.70
2018-06-22T10:06:10.086Z,2.73
2018-06-22T10:08:39.162Z,1.90
2018-06-22T10:11:09.507Z,2.03
2018-06-22T10:13:38.490Z,2.70
2018-06-22T10:16:07.447Z,2.00
2018-06-22T10:18:36.381Z,2.80
2018-06-22T10:21:05.623Z,2.67
2018-06-22T10:23:34.551Z,2.37
2018-06-22T10:26:03.717Z,2.63
2018-06-22T10:28:33.692Z,3.03
2018-06-22T10:31:02.597Z,2.47
2018-06-22T10:33:31.496Z,2.30
2018-06-22T10:36:00.461Z,2.57
2018-06-22T10:38:29.531Z,3.17
2018-06-22T10:41:03.154Z,1.97
2018-06-22T10:43:31.979Z,2.70
2018-06-22T10:46:01.049Z,3.27
2018-06-22T10:48:30.106Z,2.67
2018-06-22T10:50:59.162Z,2.67
2018-06-22T10:53:28.122Z,2.57
2018-06-22T10:55:57.157Z,2.63
2018-06-22T10:58:26.625Z,2.97
2018-06-22T11:00:56.941Z,3.63
2018-06-22T11:03:25.993Z,3.43
2018-06-22T11:05:55.094Z,4.10
2018-06-22T11:08:24.081Z,2.73
2018-06-22T11:10:53.170Z,3.00
2018-06-22T11:13:22.359Z,2.10
2018-06-22T11:15:51.398Z,2.10
2018-06-22T11:18:20.474Z,1.83
2018-06-22T11:20:49.417Z,1.53
2018-06-22T11:23:18.158Z,1.67
2018-06-22T11:25:46.984Z,1.80
2018-06-22T11:28:15.989Z,1.80
2018-06-22T11:30:44.959Z,1.63
2018-06-22T11:33:13.957Z,1.50
2018-06-22T11:35:43.208Z,1.70
2018-06-22T11:38:12.169Z,2.00
2018-06-22T11:40:41.158Z,2.50
2018-06-22T11:43:10.188Z,2.27
2018-06-22T11:45:39.247Z,2.60
2018-06-22T11:48:08.274Z,2.40
2018-06-22T11:50:37.389Z,2.60
2018-06-22T11:53:06.524Z,2.77
2018-06-22T11:55:35.530Z,2.33
2018-06-22T11:58:04.767Z,2.50
2018-06-22T12:00:33.690Z,2.57
2018-06-22T12:03:02.614Z,2.30
2018-06-22T12:05:31.597Z,2.60
2018-06-22T12:08:00.559Z,3.23
2018-06-22T12:10:30.002Z,3.50
2018-06-22T12:12:59.067Z,3.53
2018-06-22T12:15:28.062Z,3.07
2018-06-22T12:17:57.059Z,3.33
2018-06-22T12:20:26.125Z,3.00
2018-06-22T12:22:55.074Z,3.43
2018-06-22T12:25:24.275Z,2.63
2018-06-22T12:27:54.188Z,2.50
2018-06-22T12:30:23.122Z,2.10
2018-06-22T12:32:52.418Z,2.80
2018-06-22T12:35:21.150Z,2.30
2018-06-22T12:37:49.986Z,2.80
2018-06-22T12:40:18.977Z,2.27
2018-06-22T12:42:48.907Z,2.23
2018-06-22T12:45:18.011Z,2.57
2018-06-22T12:47:47.118Z,2.43
2018-06-22T12:50:16.134Z,3.17
2018-06-22T12:52:45.129Z,2.37
2018-06-22T12:55:14.082Z,1.87
2018-06-22T12:57:43.276Z,2.27
2018-06-22T13:00:12.099Z,2.83
2018-06-22T13:02:41.169Z,2.77
2018-06-22T13:05:10.185Z,2.20
2018-06-22T13:07:39.336Z,3.03
2018-06-22T13:10:08.095Z,2.80
2018-06-22T13:12:36.852Z,2.53
2018-06-22T13:15:05.830Z,1.90
2018-06-22T13:17:34.885Z,1.83
2018-06-22T13:20:04.047Z,2.00
2018-06-22T13:22:33.077Z,1.37
2018-06-22T13:25:02.083Z,2.37
2018-06-22T13:27:30.997Z,1.70
2018-06-22T13:29:59.945Z,3.00
2018-06-22T13:32:29.223Z,2.50
2018-06-22T13:34:58.159Z,1.93
2018-06-22T13:37:27.127Z,2.00
2018-06-22T13:39:56.291Z,2.33
2018-06-22T13:42:25.670Z,2.40
2018-06-22T13:44:54.582Z,2.30
2018-06-22T13:47:23.546Z,2.23
2018-06-22T13:49:52.419Z,2.30
2018-06-22T13:52:21.405Z,2.67
2018-06-22T13:54:50.502Z,3.20
2018-06-22T13:57:19.536Z,2.67
2018-06-22T13:59:48.590Z,1.87
2018-06-22T14:02:17.746Z,2.13
2018-06-22T14:04:46.813Z,2.40
2018-06-22T14:07:16.109Z,2.23
2018-06-22T14:09:45.434Z,2.10
2018-06-22T14:12:14.446Z,2.03
2018-06-22T14:14:43.161Z,2.00
2018-06-22T14:17:11.914Z,2.17
2018-06-22T14:19:40.917Z,2.03
2018-06-22T14:22:09.645Z,2.00
2018-06-22T14:24:38.330Z,1.60
2018-06-22T14:27:07.294Z,1.70
2018-06-22T14:29:36.218Z,1.70
2018-06-22T14:32:05.400Z,1.70
2018-06-22T14:34:34.330Z,1.83
2018-06-22T14:37:03.179Z,1.97
2018-06-22T14:39:32.140Z,1.47
2018-06-22T14:42:01.137Z,1.83
2018-06-22T14:44:30.754Z,1.60
2018-06-22T14:46:59.734Z,1.50
2018-06-22T14:49:28.755Z,2.00
2018-06-22T14:51:57.833Z,1.73
2018-06-22T14:54:26.862Z,2.07
2018-06-22T14:56:55.578Z,2.17
2018-06-22T14:59:24.326Z,1.67
2018-06-22T15:01:53.571Z,1.67
2018-06-22T15:04:22.418Z,1.90
2018-06-22T15:06:51.136Z,1.90
2018-06-22T15:09:20.214Z,1.80
2018-06-22T15:11:49.162Z,1.67
2018-06-22T15:14:18.158Z,1.70
2018-06-22T15:16:47.407Z,2.10
2018-06-22T15:19:16.403Z,1.93
2018-06-22T15:21:45.290Z,1.80
2018-06-22T15:24:14.333Z,1.87
2018-06-22T15:26:43.406Z,1.73
2018-06-22T15:29:12.512Z,1.90
2018-06-22T15:31:41.427Z,1.90
2018-06-22T15:34:10.381Z,2.00
2018-06-22T15:36:39.317Z,1.57
2018-06-22T15:39:08.971Z,2.07
2018-06-22T15:41:37.932Z,2.17
2018-06-22T15:44:07.066Z,2.17
2018-06-22T15:46:36.096Z,1.63
2018-06-22T15:49:05.051Z,2.13
2018-06-22T15:51:34.659Z,2.07
2018-06-22T15:54:03.877Z,1.50
2018-06-22T15:56:32.789Z,1.90
2018-06-22T15:59:02.544Z,2.20
2018-06-22T16:01:31.691Z,2.00
2018-06-22T16:04:00.656Z,2.10
2018-06-22T16:06:29.709Z,1.63
2018-06-22T16:08:58.755Z,1.83
2018-06-22T16:11:27.768Z,2.30
2018-06-22T16:13:56.787Z,2.07
2018-06-22T16:16:25.802Z,3.20
2018-06-22T16:18:54.806Z,5.60
2018-06-22T16:21:23.810Z,4.67
2018-06-22T16:23:52.761Z,4.17
2018-06-22T16:26:21.738Z,3.23
2018-06-22T16:28:51.148Z,2.40
2018-06-22T16:31:20.130Z,2.33
2018-06-22T16:33:49.155Z,2.23
2018-06-22T16:36:18.100Z,3.00
2018-06-22T16:38:47.023Z,3.10
2018-06-22T16:41:16.018Z,1.90
2018-06-22T16:43:44.730Z,2.40
2018-06-22T16:46:31.707Z,1.80
2018-06-22T16:49:02.451Z,2.77
2018-06-22T16:51:36.375Z,2.20
2018-06-22T16:54:17.038Z,2.50
2018-06-22T16:56:52.709Z,2.40
2018-06-22T16:59:30.061Z,1.80
2018-06-22T17:02:09.017Z,2.10
2018-06-22T17:04:45.589Z,1.73
2018-06-22T17:07:20.433Z,2.27
2018-06-22T17:09:50.505Z,2.00
2018-06-22T17:12:19.382Z,2.33
2018-06-22T17:14:48.645Z,2.60
2018-06-22T17:17:17.580Z,2.30
2018-06-22T17:19:46.833Z,2.13
2018-06-22T17:22:15.669Z,2.97
2018-06-22T17:24:46.138Z,2.30
2018-06-22T17:27:15.211Z,2.23
2018-06-22T17:29:44.268Z,2.43
2018-06-22T17:32:13.287Z,2.40
2018-06-22T17:34:42.609Z,2.57
2018-06-22T17:37:11.596Z,2.57
2018-06-22T17:39:40.490Z,1.70
2018-06-22T17:42:09.520Z,2.50
2018-06-22T17:44:38.446Z,2.47
2018-06-22T17:47:07.659Z,2.17
2018-06-22T17:49:36.823Z,2.23
2018-06-22T17:52:05.898Z,2.10
2018-06-22T17:54:34.802Z,2.10
2018-06-22T17:57:03.889Z,2.23
2018-06-22T17:59:32.862Z,2.50
2018-06-22T18:02:01.908Z,2.10
2018-06-22T18:04:31.891Z,2.77
2018-06-22T18:07:00.878Z,2.27
2018-06-22T18:09:29.679Z,2.53
2018-06-22T18:11:58.577Z,2.07
2018-06-22T18:14:27.574Z,2.00
2018-06-22T18:16:56.599Z,2.00
2018-06-22T18:19:25.837Z,2.30
2018-06-22T18:21:54.997Z,2.13
2018-06-22T18:24:23.992Z,2.90
2018-06-22T18:26:53.611Z,2.63
2018-06-22T18:29:22.623Z,3.17
2018-06-22T18:31:51.612Z,1.97
2018-06-22T18:34:20.546Z,2.30
2018-06-22T18:36:49.618Z,1.90
2018-06-22T18:39:18.683Z,2.70
2018-06-22T18:41:47.869Z,2.40
2018-06-22T18:44:16.686Z,2.30
2018-06-22T18:46:45.673Z,2.30
2018-06-22T18:49:14.722Z,2.10
2018-06-22T18:51:43.713Z,2.67
2018-06-22T18:54:12.735Z,1.87
2018-06-22T18:56:41.475Z,2.33
2018-06-22T18:59:09.842Z,1.87
2018-06-22T19:01:38.627Z,2.27
2018-06-22T19:04:08.284Z,2.37
2018-06-22T19:06:37.413Z,2.47
2018-06-22T19:09:07.266Z,1.93
2018-06-22T19:11:36.304Z,2.60
2018-06-22T19:14:05.524Z,2.10
2018-06-22T19:16:34.542Z,1.97
2018-06-22T19:19:04.019Z,2.30
2018-06-22T19:21:33.113Z,2.03
2018-06-22T19:24:01.913Z,2.23
2018-06-22T19:26:30.785Z,2.60
2018-06-22T19:28:59.771Z,1.90
2018-06-22T19:31:28.696Z,2.90
2018-06-22T19:33:57.771Z,1.93
2018-06-22T19:36:26.717Z,2.00
2018-06-22T19:38:55.361Z,2.03
2018-06-22T19:41:24.114Z,2.27
2018-06-22T19:43:53.603Z,1.80
2018-06-22T19:46:22.663Z,2.37
2018-06-22T19:48:51.796Z,2.10
2018-06-22T19:51:21.122Z,2.47
2018-06-22T19:53:50.299Z,2.70
2018-06-22T19:56:19.341Z,2.77
2018-06-22T19:58:48.526Z,2.93
2018-06-22T20:01:17.555Z,2.60
2018-06-22T20:03:46.553Z,2.97
2018-06-22T20:06:15.570Z,2.40
2018-06-22T20:08:44.515Z,2.40
2018-06-22T20:11:13.652Z,2.53
2018-06-22T20:13:42.716Z,3.43
2018-06-22T20:16:11.780Z,3.20
2018-06-22T20:18:40.952Z,2.33
2018-06-22T20:21:09.972Z,3.17
2018-06-22T20:23:38.951Z,3.30
2018-06-22T20:26:08.159Z,3.87
2018-06-22T20:28:37.150Z,3.43
2018-06-22T20:31:06.226Z,2.90
2018-06-22T20:33:41.941Z,3.27
2018-06-22T20:36:11.049Z,3.03
2018-06-22T20:38:39.865Z,3.10
2018-06-22T20:41:08.933Z,3.13
2018-06-22T20:43:37.950Z,3.37
2018-06-22T20:46:07.190Z,3.43
2018-06-22T20:48:36.123Z,3.00
2018-06-22T20:51:05.231Z,3.30
2018-06-22T20:53:34.212Z,2.73
2018-06-22T20:56:03.265Z,2.70
2018-06-22T20:58:32.391Z,2.23
2018-06-22T21:01:01.496Z,2.90
2018-06-22T21:03:30.481Z,3.03
2018-06-22T21:05:59.586Z,3.37
2018-06-22T21:08:28.781Z,3.43
2018-06-22T21:10:57.767Z,2.53
2018-06-22T21:13:26.719Z,2.70
2018-06-22T21:15:55.660Z,3.07
2018-06-22T21:18:25.028Z,3.30
2018-06-22T21:20:54.046Z,3.10
2018-06-22T21:23:23.082Z,3.40
2018-06-22T21:25:52.038Z,3.50
2018-06-22T21:28:21.108Z,3.17
2018-06-22T21:30:50.161Z,3.23
2018-06-22T21:33:19.109Z,2.83
2018-06-22T21:35:48.082Z,2.53
2018-06-22T21:38:17.051Z,2.57
2018-06-22T21:40:46.114Z,3.50
2018-06-22T21:43:15.340Z,2.90
2018-06-22T21:45:44.207Z,2.50
2018-06-22T21:48:13.011Z,3.07
2018-06-22T21:50:41.994Z,2.57
2018-06-22T21:53:10.930Z,2.77
2018-06-22T21:55:40.206Z,3.20
2018-06-22T21:58:09.244Z,2.53
2018-06-22T22:00:38.305Z,2.50
2018-06-22T22:03:07.280Z,3.80
2018-06-22T22:05:36.387Z,3.43
2018-06-22T22:08:05.603Z,3.63
2018-06-22T22:10:34.693Z,2.97
2018-06-22T22:13:03.661Z,3.00
2018-06-22T22:15:32.751Z,2.60
2018-06-22T22:18:01.776Z,2.77
2018-06-22T22:20:30.714Z,3.63
2018-06-22T22:22:59.717Z,3.63
2018-06-22T22:25:28.662Z,2.80
2018-06-22T22:27:57.625Z,2.87
2018-06-22T22:30:26.810Z,3.27
2018-06-22T22:32:55.785Z,3.47
2018-06-22T22:35:24.720Z,3.23
2018-06-22T22:37:53.753Z,4.07
2018-06-22T22:40:23.010Z,2.93
2018-06-22T22:42:52.073Z,3.60
2018-06-22T22:45:21.034Z,3.50
2018-06-22T22:47:50.266Z,2.67
2018-06-22T22:50:19.459Z,4.17
2018-06-22T22:52:48.402Z,3.33
2018-06-22T22:55:17.432Z,3.20
2018-06-22T22:57:46.121Z,3.30
2018-06-22T23:00:14.921Z,3.03
2018-06-22T23:02:43.965Z,3.23
2018-06-22T23:05:12.886Z,3.17
2018-06-22T23:07:41.824Z,2.97
2018-06-22T23:10:10.810Z,3.00
2018-06-22T23:12:39.791Z,3.67
2018-06-22T23:15:08.791Z,3.77
2018-06-22T23:17:37.801Z,3.30
2018-06-22T23:20:07.015Z,3.20
2018-06-22T23:22:47.101Z,3.10
2018-06-22T23:25:16.076Z,2.60
2018-06-22T23:27:45.054Z,2.83
2018-06-22T23:30:14.058Z,3.47
2018-06-22T23:32:42.894Z,3.73
2018-06-22T23:35:11.598Z,4.03
2018-06-22T23:37:40.594Z,3.93
2018-06-22T23:40:09.546Z,3.03
2018-06-22T23:42:38.278Z,3.33
2018-06-22T23:45:07.198Z,3.77
2018-06-22T23:47:36.106Z,3.37
2018-06-22T23:50:05.652Z,3.53
2018-06-22T23:52:34.377Z,4.10
2018-06-22T23:55:03.062Z,3.70
2018-06-22T23:57:31.924Z,3.90
